Date,TemperatureHighF,TemperatureAvgF,TemperatureLowF,DewpointHighF,DewpointAvgF,DewpointLowF,HumidityHigh,HumidityAvg,HumidityLow,PressureMaxIn,PressureMinIn,WindSpeedMaxMPH,WindSpeedAvgMPH,GustSpeedMaxMPH,PrecipitationSumIn
2013-1-1,48.0,39.4,34.5,37.3,31.5,26.8,92,73,58,30.12,29.98,10,0,10,0.10
2013-1-2,41.2,39.2,37.0,39.6,37.6,35.2,95,94,91,30.42,30.01,8,1,8,0.04
2013-1-3,49.6,41.8,36.5,40.5,36.0,33.3,91,81,58,30.55,30.43,9,3,9,0.06
2013-1-4,52.3,42.1,35.8,41.1,36.1,32.0,87,80,59,30.48,30.22,7,1,7,0.02
2013-1-5,59.7,48.9,40.6,44.0,38.2,33.3,78,67,50,30.22,30.06,10,2,11,0.00
2013-1-6,60.6,47.1,41.7,42.5,38.1,29.0,87,71,31,30.19,29.96,22,2,22,0.00
2013-1-7,57.0,44.7,35.8,44.1,37.6,30.7,95,77,58,30.25,30.07,108,5,108,0.00
2013-1-8,45.3,41.3,35.4,43.9,39.8,34.1,96,94,91,30.30,30.20,86,3,86,0.00
2013-1-9,41.4,40.8,40.1,40.3,39.4,38.2,96,95,93,30.21,30.15,6,0,6,0.00
2013-1-10,39.9,39.9,39.9,37.8,37.8,37.8,92,92,92,30.10,30.10,0,0,0,0.00
2013-1-12,41.4,39.0,37.9,35.8,35.4,34.4,89,87,80,29.96,29.94,4,0,4,0.00
2013-1-13,40.1,38.8,36.3,38.3,36.2,34.2,94,90,85,29.94,29.70,6,0,6,0.00
2013-1-14,39.4,37.6,35.2,37.2,36.1,33.7,95,94,91,29.78,29.69,8,1,8,0.00
2013-1-15,38.3,37.0,33.4,37.0,35.6,32.1,95,94,93,29.77,29.55,12,1,12,0.12
2013-1-16,39.9,36.2,33.3,36.1,33.8,31.3,95,91,83,29.55,29.37,12,2,12,0.26
2013-1-17,39.0,34.4,32.4,37.0,32.3,27.1,95,92,80,29.54,29.38,10,1,10,0.00
2013-1-18,44.2,36.3,31.3,28.3,25.0,21.3,80,64,41,29.57,29.50,11,3,11,0.02
2013-1-19,38.5,34.5,32.2,32.0,27.8,24.1,93,77,63,29.55,29.47,13,1,8,0.00
2013-1-20,37.0,35.0,33.1,35.7,33.6,31.5,96,94,93,29.51,29.38,8,0,8,0.52
2013-1-21,41.9,39.1,35.8,40.8,38.0,34.8,96,96,96,29.39,29.32,8,0,8,0.00
2013-1-22,47.1,41.0,37.9,45.2,38.9,35.3,97,92,78,29.67,29.37,12,1,12,0.00
2013-1-23,46.6,40.2,35.2,38.3,34.8,30.8,91,81,61,29.72,29.65,10,3,10,0.00
2013-1-24,47.1,40.3,35.4,39.2,34.8,31.5,87,81,66,29.65,29.48,10,2,10,0.00
2013-1-25,46.0,40.0,34.3,36.1,32.9,27.9,85,76,64,29.81,29.59,12,4,12,0.00
2013-1-26,42.6,38.1,33.6,34.6,31.1,28.7,84,76,62,29.94,29.77,9,1,9,0.00
2013-1-27,43.0,35.5,30.7,34.6,30.2,24.9,92,81,66,29.96,29.84,10,2,10,0.00
2013-1-28,37.6,34.9,33.3,34.5,33.0,31.3,94,93,89,30.21,29.82,7,0,7,0.00
2013-1-29,44.2,35.9,29.7,41.6,33.9,28.2,96,93,83,30.23,30.11,10,1,10,0.00
2013-1-30,37.2,33.2,27.1,36.0,32.0,25.6,96,95,93,30.15,30.00,105,1,105,0.00
2013-1-31,38.5,34.1,29.5,37.7,33.2,28.5,97,96,96,30.18,30.00,72,3,72,0.00
2013-2-1,40.3,39.5,38.8,38.5,37.9,37.3,94,94,93,30.03,29.50,43,2,43,0.00
2013-2-2,41.7,39.9,39.0,40.7,38.6,37.5,96,95,93,29.50,29.17,9,0,9,0.02
2013-2-3,53.8,43.0,36.5,39.9,27.6,14.7,96,62,23,30.01,29.43,17,3,17,0.00
2013-2-4,54.3,43.2,34.7,30.5,24.2,17.8,61,48,30,30.00,29.92,20,4,20,0.00
2013-2-5,43.9,40.3,37.0,34.6,30.4,27.3,80,68,59,30.00,29.50,13,1,13,0.00
2013-2-6,51.1,41.7,35.4,37.6,32.0,21.7,88,72,32,29.52,29.35,23,2,23,0.00
2013-2-7,48.0,40.4,34.7,37.0,27.4,8.7,86,65,25,29.73,29.50,16,3,16,0.00
2013-2-8,46.2,39.3,31.8,18.8,14.7,8.9,47,37,27,29.82,29.72,16,4,16,0.00
2013-2-9,45.0,36.9,32.2,20.5,14.7,8.0,51,40,30,29.89,29.82,14,4,14,0.00
2013-2-10,41.4,34.1,28.0,19.9,13.9,5.6,68,44,32,29.94,29.83,12,2,12,0.00
2013-2-11,34.3,32.3,30.2,30.7,26.4,17.3,93,80,50,29.84,29.45,8,0,8,0.00
2013-2-12,37.8,34.3,31.3,34.9,32.1,29.8,95,92,86,29.77,29.45,5,0,5,0.06
2013-2-13,38.5,32.7,27.7,33.9,29.7,25.1,93,89,76,29.98,29.76,12,1,12,0.00
2013-2-14,45.3,38.0,34.0,32.1,28.1,23.0,76,68,45,30.06,29.96,12,3,12,0.00
2013-2-15,43.9,39.6,36.3,33.3,29.8,27.3,74,68,60,30.06,29.92,12,2,12,0.00
2013-2-16,48.4,41.3,37.6,36.4,31.9,29.0,74,69,59,30.15,30.05,9,2,9,0.00
2013-2-17,46.0,41.6,38.5,36.5,33.9,31.1,84,74,66,30.11,30.03,18,4,18,0.00
2013-2-18,46.8,40.5,36.0,36.1,32.6,29.6,87,74,55,30.07,29.99,15,4,15,0.00
2013-2-19,47.7,39.9,33.6,33.6,30.2,26.7,78,69,54,30.06,29.82,15,4,15,0.00
2013-2-20,44.4,40.1,36.3,35.6,33.4,29.5,83,77,69,29.90,29.83,14,3,14,0.00
2013-2-21,39.9,34.2,31.1,35.3,31.8,29.6,94,91,83,29.89,29.75,15,1,15,0.00
2013-2-22,35.4,32.2,29.8,31.8,29.8,28.1,94,91,82,29.75,29.57,8,0,8,0.00
2013-2-23,38.3,33.8,30.4,31.7,30.2,28.3,94,87,74,29.63,29.46,10,1,10,0.00
2013-2-24,36.0,33.6,32.7,34.4,32.2,31.2,95,95,93,29.81,29.47,17,1,17,0.10
2013-2-25,39.7,35.8,32.7,37.6,34.0,31.2,95,93,89,30.13,29.81,14,2,14,0.34
2013-2-26,50.5,40.8,33.4,35.6,31.4,28.5,91,70,46,30.12,30.08,9,3,9,0.00
2013-2-27,45.7,41.7,37.2,37.3,33.1,28.7,80,71,61,30.22,30.11,7,1,7,0.00
2013-2-28,53.2,46.0,41.7,42.4,38.4,35.8,81,75,61,30.25,30.15,8,1,8,0.00
2013-3-1,54.7,46.1,38.8,42.0,38.6,34.0,83,75,59,30.16,29.99,10,3,10,0.00
2013-3-2,54.1,47.2,41.7,41.1,39.3,36.6,84,74,56,30.09,29.99,13,2,13,0.00
2013-3-3,55.2,46.8,40.5,42.2,38.9,35.7,84,75,60,30.08,29.97,51,2,51,0.00
2013-3-4,57.4,48.2,40.8,41.9,36.1,32.9,78,64,41,30.17,30.04,12,3,12,0.00
2013-3-5,52.0,46.4,39.9,35.1,32.4,27.4,70,59,40,30.19,30.05,13,2,13,0.00
2013-3-6,48.4,45.7,43.7,44.6,40.4,32.6,94,82,55,30.05,29.69,15,2,15,0.00
2013-3-7,50.2,47.2,44.4,48.8,45.8,42.8,96,95,94,29.70,29.65,6,0,6,0.00
2013-3-8,51.4,48.8,46.6,50.3,47.8,45.7,97,96,96,29.67,29.59,5,0,5,0.00
2013-3-9,55.9,49.5,44.2,50.5,46.7,43.0,96,90,69,29.62,29.53,11,1,11,0.00
2013-3-10,59.2,50.1,41.9,51.6,46.1,40.4,97,87,62,29.56,29.44,21,3,21,0.00
2013-3-11,58.6,49.5,43.7,48.3,44.3,40.0,90,83,64,29.50,29.43,14,3,14,0.00
2013-3-12,53.1,47.1,43.9,45.3,42.6,40.5,94,85,70,29.49,29.37,16,3,16,0.00
2013-3-13,52.9,47.2,42.8,44.8,41.4,39.3,89,80,69,29.40,29.31,15,2,15,0.00
2013-3-14,54.0,46.3,40.8,41.8,31.6,9.2,87,62,24,29.42,29.22,23,5,23,0.00
2013-3-15,49.8,42.6,35.2,12.8,8.6,4.6,35,25,17,29.91,29.42,22,4,22,0.00
2013-3-16,46.6,40.0,31.8,29.8,18.6,8.8,66,42,29,30.08,29.90,15,4,15,0.00
2013-3-17,40.3,38.1,35.4,34.9,31.8,27.4,92,79,62,30.04,29.72,14,3,14,0.00
2013-3-18,38.8,35.8,32.7,37.5,34.3,31.2,95,94,92,29.73,29.23,15,2,15,0.00
2013-3-19,58.8,45.8,35.2,38.0,33.8,27.7,93,66,32,29.65,29.30,16,4,16,0.00
2013-3-20,47.7,43.7,39.4,42.6,36.4,30.3,92,76,58,29.77,29.63,13,3,13,0.00
2013-3-21,62.6,49.2,36.1,40.3,28.3,16.4,91,52,17,29.86,29.75,22,5,22,0.00
2013-3-22,58.8,50.3,41.5,32.8,27.3,22.9,56,41,30,29.87,29.80,14,4,14,0.00
2013-3-23,54.5,49.2,44.4,45.0,38.5,32.4,90,67,54,29.88,29.80,12,3,12,0.00
2013-3-24,47.1,44.3,41.0,44.0,42.3,39.7,95,92,86,29.81,29.66,15,2,15,0.00
2013-3-25,41.5,39.6,37.9,40.2,38.4,36.1,96,95,93,29.66,29.49,12,4,12,0.00
2013-3-26,42.4,38.0,34.3,36.1,33.8,31.0,95,85,72,29.65,29.52,16,5,16,0.00
2013-3-27,45.1,41.8,38.8,36.8,35.3,33.6,87,78,66,29.83,29.64,9,2,9,0.00
2013-3-28,44.8,41.7,38.3,38.1,36.4,35.1,94,82,71,29.90,29.81,8,1,8,0.00
2013-3-29,48.7,42.2,38.3,41.9,39.2,36.7,95,90,76,29.81,29.62,12,1,12,0.00
2013-3-30,46.2,44.3,43.0,44.9,42.9,41.3,96,95,93,29.67,29.36,12,2,12,0.00
2013-3-31,59.7,47.9,39.7,48.7,42.4,37.8,96,83,52,29.58,29.32,24,5,24,0.00
2013-4-1,47.3,45.2,42.4,40.6,39.4,37.7,90,80,72,29.68,29.58,15,2,15,0.00
2013-4-2,54.9,49.1,43.5,43.9,41.2,39.0,85,74,63,29.62,29.50,16,4,16,0.00
2013-4-3,58.5,50.7,43.9,44.6,41.1,37.1,84,70,53,29.70,29.59,14,3,14,0.00
2013-4-4,53.2,49.3,44.4,44.3,41.6,38.8,87,75,62,29.73,29.66,18,5,18,0.63
2013-4-5,50.0,47.8,45.7,47.4,45.3,43.0,94,91,87,29.68,29.45,16,4,16,0.63
2013-4-6,57.9,51.3,44.8,48.0,45.9,42.9,93,82,66,29.87,29.66,22,2,22,0.00
2013-4-7,54.5,51.5,47.1,47.2,43.2,39.3,85,74,58,29.88,29.81,14,2,14,0.35
2013-4-8,49.3,45.0,41.7,40.5,37.7,33.6,89,76,61,29.87,29.72,18,6,18,0.00
2013-4-9,49.8,44.9,42.1,44.2,41.6,39.6,93,88,78,29.79,29.72,14,2,14,0.00
2013-4-10,61.0,54.1,42.1,46.5,44.0,39.4,90,69,55,29.90,29.80,16,3,16,0.00
2013-4-11,62.6,54.0,48.2,49.8,45.7,42.6,90,74,58,29.95,29.85,12,2,12,0.00
2013-4-12,64.2,55.1,50.7,53.9,49.7,46.7,92,82,61,29.87,29.73,17,4,17,0.00
2013-4-13,69.6,58.9,49.3,51.6,45.4,35.6,85,64,30,30.22,29.85,15,4,15,0.00
2013-4-14,73.0,62.0,52.0,50.4,45.4,40.9,66,55,39,30.34,30.22,25,4,25,0.00
2013-4-15,73.8,64.5,55.0,51.9,49.1,45.4,71,58,45,30.27,30.08,20,4,20,0.00
2013-4-16,72.0,65.3,59.5,52.2,49.3,45.4,67,56,45,30.19,30.11,13,2,13,0.00
2013-4-17,75.0,66.1,57.9,52.6,49.2,46.2,72,55,42,30.24,30.14,14,2,14,0.00
2013-4-18,79.0,68.3,58.6,55.0,52.2,49.1,72,57,39,30.15,29.98,20,4,20,0.00
2013-4-19,75.7,67.8,60.4,56.6,53.6,51.1,79,61,45,30.00,29.77,29,7,29,0.00
2013-4-20,61.9,52.9,49.6,54.9,50.8,48.0,95,92,77,30.03,29.81,23,5,23,0.00
2013-4-21,61.3,55.3,51.3,51.5,49.4,46.5,95,81,62,30.01,29.88,18,3,18,0.18
2013-4-22,56.8,53.4,51.6,51.3,49.3,46.9,90,86,79,30.02,29.85,10,1,10,0.00
2013-4-23,65.7,56.7,51.4,54.2,50.7,47.5,91,81,55,30.31,30.02,20,3,20,0.00
2013-4-24,69.6,60.8,51.6,52.4,49.6,47.6,87,68,49,30.41,30.30,15,3,15,0.00
2013-4-25,73.9,63.7,53.8,53.6,50.4,47.4,79,63,44,30.34,30.17,12,3,12,0.00
2013-4-26,69.1,63.2,60.1,57.1,53.8,50.3,80,71,63,30.17,29.84,34,1,34,0.00
2013-4-27,61.7,57.2,55.4,55.3,53.9,52.3,93,89,74,29.84,29.62,34,8,34,0.00
2013-4-28,67.8,60.2,55.0,57.9,54.1,51.5,91,81,63,29.96,29.68,15,4,15,0.00
2013-4-29,65.8,60.2,57.2,61.0,56.6,54.7,95,88,78,30.12,29.94,12,2,12,0.00
2013-4-30,66.9,62.3,57.7,60.0,57.0,54.6,92,83,70,30.09,30.03,12,2,12,0.00
2013-5-1,74.1,66.5,58.8,61.6,57.6,54.6,88,74,56,30.11,29.99,13,2,13,0.00
2013-5-2,71.8,66.2,61.0,61.0,58.9,52.6,90,78,67,30.02,29.88,13,3,13,0.00
2013-5-3,73.8,64.4,55.9,56.7,52.5,47.9,83,66,49,29.91,29.83,13,3,13,0.00
2013-5-4,75.6,65.2,56.1,56.8,51.5,47.4,78,62,39,29.99,29.90,13,2,13,0.00
2013-5-5,72.3,62.8,56.5,58.4,52.0,47.9,94,69,46,30.06,29.96,24,4,24,0.59
2013-5-6,67.6,61.1,56.8,58.4,56.3,54.6,95,85,67,30.05,29.92,12,2,12,0.00
2013-5-7,73.0,62.4,55.9,58.5,54.6,50.3,88,76,55,29.94,29.86,22,4,22,0.00
2013-5-8,74.1,64.2,57.0,57.3,54.5,52.1,86,72,49,29.97,29.89,16,3,16,0.00
2013-5-9,79.3,68.7,58.8,58.0,54.0,49.6,80,61,39,29.99,29.88,14,2,14,0.00
2013-5-10,67.6,61.5,58.8,58.8,56.9,54.6,94,85,63,29.89,29.83,12,2,12,0.00
2013-5-11,73.2,62.8,56.1,59.1,56.3,53.1,96,81,53,29.86,29.74,16,3,16,0.00
2013-5-12,66.0,59.2,54.9,55.2,51.3,35.6,88,76,37,29.92,29.83,10,1,10,0.00
2013-5-13,72.3,61.9,50.5,49.8,45.0,36.4,76,55,38,30.03,29.90,18,3,18,0.00
2013-5-14,73.4,65.0,55.0,50.1,47.0,44.2,72,53,38,29.95,29.79,21,5,21,0.00
2013-5-15,71.1,62.3,56.3,55.1,48.4,39.2,91,62,37,29.80,29.66,25,8,25,0.00
2013-5-16,57.0,57.0,57.0,54.7,54.5,54.4,92,91,91,29.49,29.48,0,0,0,0.00
2013-5-17,67.5,59.4,52.2,54.7,50.7,47.3,95,74,51,29.76,29.45,20,6,20,0.00
2013-5-18,66.6,58.6,53.2,51.4,47.6,43.1,84,68,45,29.93,29.76,14,4,14,0.00
2013-5-19,62.2,56.5,52.2,53.3,50.1,46.0,94,80,57,29.89,29.74,20,7,20,0.00
2013-5-20,69.4,59.3,52.0,49.0,46.3,39.8,83,64,38,29.96,29.87,18,6,18,0.00
2013-5-21,68.9,59.1,53.4,49.9,47.0,41.6,84,66,40,29.96,29.81,25,5,25,0.00
2013-5-22,70.9,60.5,49.8,53.7,48.0,44.1,82,65,44,29.82,29.59,14,2,14,0.00
2013-5-23,72.9,62.8,54.3,53.8,47.3,41.7,85,59,36,29.61,29.46,33,6,33,0.02
2013-5-24,57.0,48.8,43.0,48.4,44.3,40.5,94,85,65,29.73,29.48,24,5,24,0.00
2013-5-25,52.5,48.8,46.2,46.8,44.8,43.1,91,86,75,29.77,29.67,15,2,15,0.00
2013-5-26,68.5,56.5,43.2,48.2,39.4,30.0,89,58,24,29.83,21.38,23,6,23,0.00
2013-5-27,72.3,61.1,48.9,49.5,43.8,36.3,69,54,36,29.83,29.76,20,8,20,0.00
2013-5-28,68.7,61.8,57.0,53.8,49.5,47.3,84,65,47,29.82,29.61,20,6,20,0.00
2013-5-29,65.8,57.3,49.8,54.1,49.7,44.5,91,77,50,29.63,29.49,26,8,26,0.00
2013-5-30,66.4,56.0,48.0,48.3,45.6,38.0,90,70,44,29.62,29.53,28,3,28,0.00
2013-5-31,69.3,59.2,50.5,49.8,46.1,39.5,84,64,34,29.59,29.49,15,4,15,0.00
2013-6-1,69.8,62.2,53.2,54.8,51.4,47.1,82,68,55,29.74,29.52,17,3,17,0.00
2013-6-2,80.4,68.0,57.0,57.7,53.1,41.4,82,62,34,29.87,29.68,14,4,14,0.12
2013-6-3,74.7,65.3,59.5,56.9,53.8,48.2,89,68,42,29.97,29.86,17,2,17,0.00
2013-6-4,79.7,68.5,60.1,54.8,52.1,49.0,76,58,36,29.95,29.85,16,2,16,0.00
2013-6-5,77.2,67.4,61.2,59.3,56.3,52.9,85,68,45,29.99,29.92,15,2,15,0.00
2013-6-6,77.4,66.6,59.9,60.2,57.6,54.6,91,74,53,30.06,29.97,21,3,21,0.00
2013-6-7,81.0,70.3,61.3,60.9,56.9,54.2,78,64,46,30.06,29.95,13,3,13,0.00
2013-6-8,82.2,71.6,63.3,60.1,56.2,53.2,73,59,41,29.99,29.84,18,5,18,0.00
2013-6-9,73.2,66.3,56.5,61.4,55.7,52.0,92,69,53,29.87,29.74,22,4,22,0.00
2013-6-10,73.9,64.1,56.5,56.0,53.8,49.5,90,71,49,29.83,29.73,18,4,18,0.00
2013-6-11,83.7,67.6,57.6,59.1,55.8,48.3,84,68,41,29.93,29.80,21,4,21,0.00
2013-6-12,84.6,72.2,60.4,59.5,54.5,52.4,80,56,36,30.05,29.94,12,4,12,0.00
2013-6-13,85.6,75.4,65.1,58.1,54.7,49.8,67,50,36,30.10,29.96,14,4,14,0.00
2013-6-14,87.3,77.4,67.6,59.5,57.1,54.1,67,51,36,30.00,29.92,14,4,14,0.00
2013-6-15,88.3,77.7,67.8,66.3,60.6,55.6,74,57,38,29.99,29.55,25,3,25,0.00
2013-6-16,87.3,77.7,68.7,66.9,63.8,61.7,80,64,47,29.65,29.58,12,2,12,0.00
2013-6-17,92.3,81.4,71.4,67.9,64.8,61.9,74,58,41,29.67,29.58,12,2,12,0.00
2013-6-18,94.8,83.9,73.4,67.0,64.6,60.8,72,54,34,29.65,29.57,10,3,10,0.00
2013-6-19,95.0,83.7,75.0,69.2,64.6,60.1,67,53,38,29.65,29.56,20,5,20,0.00
2013-6-20,89.6,80.6,75.4,68.1,64.3,58.9,72,58,42,29.62,29.54,20,5,20,0.00
2013-6-21,84.4,76.7,70.0,62.8,57.6,53.1,69,53,37,29.60,29.55,15,5,15,0.00
2013-6-22,83.7,74.5,66.2,62.4,57.7,53.8,69,56,40,29.62,29.53,17,4,17,0.00
2013-6-23,84.7,74.0,64.9,63.8,59.2,56.1,82,61,41,29.59,29.41,18,5,18,0.00
2013-6-24,75.4,68.4,63.3,61.7,53.4,45.5,84,60,43,29.59,29.41,21,5,21,0.00
2013-6-25,82.6,70.6,58.8,49.6,44.5,36.7,64,42,21,29.68,29.55,44,5,44,0.00
2013-6-26,78.3,68.4,60.6,49.1,46.0,40.4,62,46,30,29.77,29.68,25,6,25,0.00
2013-6-27,70.0,62.6,56.3,52.9,49.4,45.7,87,63,44,29.79,29.66,21,5,21,0.00
2013-6-28,68.4,61.2,55.4,57.2,51.0,47.5,85,70,49,29.73,29.65,16,2,16,0.00
2013-6-29,73.0,64.7,55.9,52.2,50.2,46.3,78,61,40,29.73,29.60,15,3,15,0.00
2013-6-30,82.9,71.0,59.4,53.2,50.5,46.5,72,51,30,29.69,29.60,17,3,17,0.00
2013-7-1,83.3,74.2,64.8,55.9,52.6,50.3,60,48,35,29.69,29.62,22,4,22,0.00
2013-7-2,85.3,75.7,65.7,58.1,55.5,51.8,69,51,34,29.69,28.74,21,3,21,0.00
2013-7-3,81.0,73.4,66.7,60.6,58.1,54.2,73,60,44,29.94,28.63,16,4,16,0.00
2013-7-4,85.8,75.8,65.8,62.2,58.3,55.2,72,56,40,30.07,29.90,20,4,20,0.00
2013-7-5,88.7,80.3,71.1,61.4,59.2,56.1,67,50,35,30.14,30.06,14,4,14,0.00
2013-7-6,87.6,80.4,73.9,63.2,60.5,57.6,64,52,39,30.16,30.08,18,4,18,0.00
2013-7-7,86.7,75.7,68.5,64.3,62.2,58.9,80,64,43,30.18,30.11,22,6,22,0.00
2013-7-8,87.4,76.6,70.5,66.2,62.7,60.6,75,63,43,30.19,30.11,31,5,31,0.00
2013-7-9,87.3,78.4,69.6,63.4,61.5,58.0,71,57,39,30.14,29.95,16,5,16,0.00
2013-7-10,85.8,75.5,70.0,67.9,61.3,55.1,83,62,46,29.99,29.82,22,5,22,0.00
2013-7-11,89.2,78.7,69.4,65.5,62.2,58.8,81,58,41,29.86,29.75,18,5,18,0.00
2013-7-12,83.1,76.5,68.7,63.9,62.0,59.4,76,61,51,29.97,29.84,17,4,17,0.00
2013-7-13,86.2,76.5,66.0,68.8,64.2,59.3,83,67,48,30.00,29.90,16,4,16,0.00